Basel, Switzerland
Current Conditions -  °F | °C
As of 1:30 PM on Monday 22 Dec 2014 (Local Time) from LFSB Reporting Station
Clear Clear  
Wind Chill: 44°   Ceiling: Unl
Heat Index: 48°   Visibility: 6mi
Dew Point: 37°   Wind: 9mph
Humidity: 66%   Direction: 250°WSW
Pressure: 30.42"   Gusts: NA
Location:  47.57°N, 7.58°E
Report Text: LFSB 221230Z 25008KT CAVOK 09/03 Q1030 NOSIG
Loading
Personal Weather Stations






























Interactive Weather Map New forecast layout! Learn more

10-Day Weather Forecast

Advertisements
Track Severe Weather on mobile